sensor_id;sensor_type;location;lat;lon;timestamp;pressure;altitude;pressure_sealevel;temperature
72278;BMP280;61204;49.980;8.358;2023-12-04T00:01:28;100787.69;;;-2.14
72278;BMP280;61204;49.980;8.358;2023-12-04T00:03:54;100797.94;;;-2.12
72278;BMP280;61204;49.980;8.358;2023-12-04T00:06:21;100790.34;;;-2.20
72278;BMP280;61204;49.980;8.358;2023-12-04T00:08:48;100784.91;;;-2.25
72278;BMP280;61204;49.980;8.358;2023-12-04T00:11:14;100778.59;;;-2.22
72278;BMP280;61204;49.980;8.358;2023-12-04T00:13:40;100773.34;;;-2.31
72278;BMP280;61204;49.980;8.358;2023-12-04T00:16:08;100778.69;;;-2.37
72278;BMP280;61204;49.980;8.358;2023-12-04T00:18:34;100764.75;;;-2.41
72278;BMP280;61204;49.980;8.358;2023-12-04T00:21:00;100759.53;;;-2.50
72278;BMP280;61204;49.980;8.358;2023-12-04T00:23:25;100763.00;;;-2.44
72278;BMP280;61204;49.980;8.358;2023-12-04T00:25:51;100759.59;;;-2.45
72278;BMP280;61204;49.980;8.358;2023-12-04T00:28:19;100762.31;;;-2.39
72278;BMP280;61204;49.980;8.358;2023-12-04T00:30:45;100757.03;;;-2.59
72278;BMP280;61204;49.980;8.358;2023-12-04T00:33:10;100754.72;;;-2.72
72278;BMP280;61204;49.980;8.358;2023-12-04T00:35:36;100750.00;;;-2.77
72278;BMP280;61204;49.980;8.358;2023-12-04T00:38:01;100754.72;;;-2.72
72278;BMP280;61204;49.980;8.358;2023-12-04T00:40:27;100746.88;;;-2.76
72278;BMP280;61204;49.980;8.358;2023-12-04T00:42:52;100743.47;;;-2.76
72278;BMP280;61204;49.980;8.358;2023-12-04T00:45:18;100738.09;;;-2.76
72278;BMP280;61204;49.980;8.358;2023-12-04T00:47:44;100731.28;;;-2.72
72278;BMP280;61204;49.980;8.358;2023-12-04T00:50:10;100727.72;;;-2.89
72278;BMP280;61204;49.980;8.358;2023-12-04T00:52:36;100725.91;;;-2.98
72278;BMP280;61204;49.980;8.358;2023-12-04T00:55:02;100711.25;;;-3.02
72278;BMP280;61204;49.980;8.358;2023-12-04T00:57:28;100713.44;;;-3.01
72278;BMP280;61204;49.980;8.358;2023-12-04T00:59:54;100712.78;;;-2.96
72278;BMP280;61204;49.980;8.358;2023-12-04T01:02:19;100712.78;;;-2.96
72278;BMP280;61204;49.980;8.358;2023-12-04T01:04:45;100706.22;;;-2.95
72278;BMP280;61204;49.980;8.358;2023-12-04T01:07:10;100700.22;;;-3.04
72278;BMP280;61204;49.980;8.358;2023-12-04T01:09:36;100701.19;;;-3.07
72278;BMP280;61204;49.980;8.358;2023-12-04T01:12:04;100691.41;;;-3.10
72278;BMP280;61204;49.980;8.358;2023-12-04T01:14:30;100693.53;;;-3.15
72278;BMP280;61204;49.980;8.358;2023-12-04T01:16:58;100693.81;;;-3.13
72278;BMP280;61204;49.980;8.358;2023-12-04T01:19:24;100694.50;;;-3.18
72278;BMP280;61204;49.980;8.358;2023-12-04T01:21:49;100687.44;;;-3.15
72278;BMP280;61204;49.980;8.358;2023-12-04T01:24:15;100687.94;;;-3.17
72278;BMP280;61204;49.980;8.358;2023-12-04T01:26:41;100688.63;;;-3.22
72278;BMP280;61204;49.980;8.358;2023-12-04T01:29:12;100687.31;;;-3.26
72278;BMP280;61204;49.980;8.358;2023-12-04T01:31:38;100677.91;;;-3.22
72278;BMP280;61204;49.980;8.358;2023-12-04T01:34:05;100676.59;;;-3.26
72278;BMP280;61204;49.980;8.358;2023-12-04T01:36:31;100687.31;;;-3.26
72278;BMP280;61204;49.980;8.358;2023-12-04T01:38:56;100684.59;;;-3.32
72278;BMP280;61204;49.980;8.358;2023-12-04T01:41:22;100678.41;;;-3.38
72278;BMP280;61204;49.980;8.358;2023-12-04T01:43:47;100674.22;;;-3.45
72278;BMP280;61204;49.980;8.358;2023-12-04T01:46:15;100673.00;;;-3.44
72278;BMP280;61204;49.980;8.358;2023-12-04T01:48:44;100667.44;;;-3.40
72278;BMP280;61204;49.980;8.358;2023-12-04T01:51:12;100677.91;;;-3.42
72278;BMP280;61204;49.980;8.358;2023-12-04T01:53:42;100677.16;;;-3.43
72278;BMP280;61204;49.980;8.358;2023-12-04T01:56:09;100679.31;;;-3.47
72278;BMP280;61204;49.980;8.358;2023-12-04T01:58:36;100682.94;;;-3.50
72278;BMP280;61204;49.980;8.358;2023-12-04T02:01:04;100682.19;;;-3.50
72278;BMP280;61204;49.980;8.358;2023-12-04T02:03:30;100677.00;;;-3.54
72278;BMP280;61204;49.980;8.358;2023-12-04T02:05:59;100681.81;;;-3.64
72278;BMP280;61204;49.980;8.358;2023-12-04T02:08:27;100678.31;;;-3.70
72278;BMP280;61204;49.980;8.358;2023-12-04T02:10:53;100671.47;;;-3.71
72278;BMP280;61204;49.980;8.358;2023-12-04T02:13:19;100667.19;;;-3.63
72278;BMP280;61204;49.980;8.358;2023-12-04T02:15:49;100657.69;;;-3.64
72278;BMP280;61204;49.980;8.358;2023-12-04T02:18:21;100652.53;;;-3.67
72278;BMP280;61204;49.980;8.358;2023-12-04T02:20:47;100651.88;;;-3.77
72278;BMP280;61204;49.980;8.358;2023-12-04T02:23:13;100658.09;;;-3.71
72278;BMP280;61204;49.980;8.358;2023-12-04T02:25:41;100647.94;;;-3.61
72278;BMP280;61204;49.980;8.358;2023-12-04T02:28:11;100643.84;;;-3.56
72278;BMP280;61204;49.980;8.358;2023-12-04T02:30:43;100639.59;;;-3.48
72278;BMP280;61204;49.980;8.358;2023-12-04T02:33:13;100638.16;;;-3.44
72278;BMP280;61204;49.980;8.358;2023-12-04T02:35:41;100636.22;;;-3.43
72278;BMP280;61204;49.980;8.358;2023-12-04T02:38:08;100628.97;;;-3.37
72278;BMP280;61204;49.980;8.358;2023-12-04T02:40:35;100626.53;;;-3.35
72278;BMP280;61204;49.980;8.358;2023-12-04T02:43:04;100620.75;;;-3.28
72278;BMP280;61204;49.980;8.358;2023-12-04T02:45:32;100608.03;;;-3.33
72278;BMP280;61204;49.980;8.358;2023-12-04T02:48:00;100611.47;;;-3.32
72278;BMP280;61204;49.980;8.358;2023-12-04T02:50:28;100609.25;;;-3.34
72278;BMP280;61204;49.980;8.358;2023-12-04T02:52:53;100594.13;;;-3.37
72278;BMP280;61204;49.980;8.358;2023-12-04T02:55:19;100600.16;;;-3.16
72278;BMP280;61204;49.980;8.358;2023-12-04T02:57:44;100598.19;;;-3.21
72278;BMP280;61204;49.980;8.358;2023-12-04T03:00:10;100597.97;;;-3.18
72278;BMP280;61204;49.980;8.358;2023-12-04T03:02:36;100589.50;;;-3.10
72278;BMP280;61204;49.980;8.358;2023-12-04T03:05:04;100583.56;;;-3.15
72278;BMP280;61204;49.980;8.358;2023-12-04T03:07:30;100590.69;;;-3.12
72278;BMP280;61204;49.980;8.358;2023-12-04T03:09:56;100573.94;;;-3.01
72278;BMP280;61204;49.980;8.358;2023-12-04T03:12:21;100577.09;;;-3.02
72278;BMP280;61204;49.980;8.358;2023-12-04T03:14:47;100575.81;;;-3.13
72278;BMP280;61204;49.980;8.358;2023-12-04T03:17:15;100567.75;;;-3.13
72278;BMP280;61204;49.980;8.358;2023-12-04T03:19:40;100562.91;;;-3.08
72278;BMP280;61204;49.980;8.358;2023-12-04T03:22:06;100565.50;;;-3.20
72278;BMP280;61204;49.980;8.358;2023-12-04T03:24:32;100559.00;;;-3.07
72278;BMP280;61204;49.980;8.358;2023-12-04T03:27:00;100558.28;;;-3.08
72278;BMP280;61204;49.980;8.358;2023-12-04T03:29:26;100557.31;;;-3.05
72278;BMP280;61204;49.980;8.358;2023-12-04T03:31:54;100562.75;;;-2.99
72278;BMP280;61204;49.980;8.358;2023-12-04T03:34:21;100554.41;;;-3.07
72278;BMP280;61204;49.980;8.358;2023-12-04T03:36:47;100560.19;;;-3.14
72278;BMP280;61204;49.980;8.358;2023-12-04T03:39:12;100560.72;;;-3.10
72278;BMP280;61204;49.980;8.358;2023-12-04T03:41:38;100554.25;;;-3.24
72278;BMP280;61204;49.980;8.358;2023-12-04T03:44:03;100544.75;;;-3.25
72278;BMP280;61204;49.980;8.358;2023-12-04T03:46:29;100543.06;;;-3.22
72278;BMP280;61204;49.980;8.358;2023-12-04T03:48:55;100530.13;;;-3.24
72278;BMP280;61204;49.980;8.358;2023-12-04T03:51:20;100531.53;;;-3.28
72278;BMP280;61204;49.980;8.358;2023-12-04T03:53:48;100523.53;;;-3.23
72278;BMP280;61204;49.980;8.358;2023-12-04T03:56:14;100534.16;;;-3.34
72278;BMP280;61204;49.980;8.358;2023-12-04T03:58:39;100536.53;;;-3.42
72278;BMP280;61204;49.980;8.358;2023-12-04T04:01:05;100526.56;;;-3.41
72278;BMP280;61204;49.980;8.358;2023-12-04T04:03:31;100525.09;;;-3.42
72278;BMP280;61204;49.980;8.358;2023-12-04T04:05:57;100527.53;;;-3.44
72278;BMP280;61204;49.980;8.358;2023-12-04T04:08:25;100520.66;;;-3.45
72278;BMP280;61204;49.980;8.358;2023-12-04T04:10:50;100525.31;;;-3.46
72278;BMP280;61204;49.980;8.358;2023-12-04T04:13:18;100526.03;;;-3.45
72278;BMP280;61204;49.980;8.358;2023-12-04T04:15:44;100523.34;;;-3.45
72278;BMP280;61204;49.980;8.358;2023-12-04T04:18:11;100525.81;;;-3.42
72278;BMP280;61204;49.980;8.358;2023-12-04T04:20:39;100519.78;;;-3.37
72278;BMP280;61204;49.980;8.358;2023-12-04T04:23:04;100521.72;;;-3.37
72278;BMP280;61204;49.980;8.358;2023-12-04T04:25:30;100526.34;;;-3.38
72278;BMP280;61204;49.980;8.358;2023-12-04T04:27:55;100530.53;;;-3.31
72278;BMP280;61204;49.980;8.358;2023-12-04T04:30:21;100527.81;;;-3.37
72278;BMP280;61204;49.980;8.358;2023-12-04T04:32:47;100542.22;;;-3.34
72278;BMP280;61204;49.980;8.358;2023-12-04T04:35:12;100538.06;;;-3.35
72278;BMP280;61204;49.980;8.358;2023-12-04T04:37:38;100538.53;;;-3.37
72278;BMP280;61204;49.980;8.358;2023-12-04T04:40:04;100528.28;;;-3.38
72278;BMP280;61204;49.980;8.358;2023-12-04T04:42:30;100521.94;;;-3.41
72278;BMP280;61204;49.980;8.358;2023-12-04T04:44:56;100510.72;;;-3.39
72278;BMP280;61204;49.980;8.358;2023-12-04T04:47:21;100508.88;;;-3.27
72278;BMP280;61204;49.980;8.358;2023-12-04T04:49:47;100504.66;;;-3.34
72278;BMP280;61204;49.980;8.358;2023-12-04T04:52:13;100500.03;;;-3.33
72278;BMP280;61204;49.980;8.358;2023-12-04T04:54:38;100504.47;;;-3.30
72278;BMP280;61204;49.980;8.358;2023-12-04T04:57:04;100494.00;;;-3.28
72278;BMP280;61204;49.980;8.358;2023-12-04T04:59:30;100509.13;;;-3.25
72278;BMP280;61204;49.980;8.358;2023-12-04T05:01:57;100508.88;;;-3.27
72278;BMP280;61204;49.980;8.358;2023-12-04T05:04:23;100513.50;;;-3.28
72278;BMP280;61204;49.980;8.358;2023-12-04T05:06:48;100514.22;;;-3.27
72278;BMP280;61204;49.980;8.358;2023-12-04T05:09:15;100508.72;;;-3.18
72278;BMP280;61204;49.980;8.358;2023-12-04T05:11:41;100508.88;;;-3.27
72278;BMP280;61204;49.980;8.358;2023-12-04T05:14:06;100502.03;;;-3.28
72278;BMP280;61204;49.980;8.358;2023-12-04T05:16:32;100501.75;;;-3.36
72278;BMP280;61204;49.980;8.358;2023-12-04T05:18:57;100497.91;;;-3.29
72278;BMP280;61204;49.980;8.358;2023-12-04T05:21:23;100490.09;;;-3.27
72278;BMP280;61204;49.980;8.358;2023-12-04T05:23:48;100482.78;;;-3.27
72278;BMP280;61204;49.980;8.358;2023-12-04T05:26:14;100485.22;;;-3.29
72278;BMP280;61204;49.980;8.358;2023-12-04T05:28:40;100484.00;;;-3.28
72278;BMP280;61204;49.980;8.358;2023-12-04T05:31:05;100482.78;;;-3.27
72278;BMP280;61204;49.980;8.358;2023-12-04T05:33:31;100469.38;;;-3.27
72278;BMP280;61204;49.980;8.358;2023-12-04T05:35:57;100476.50;;;-3.24
72278;BMP280;61204;49.980;8.358;2023-12-04T05:38:22;100473.53;;;-3.26
72278;BMP280;61204;49.980;8.358;2023-12-04T05:40:48;100474.22;;;-3.31
72278;BMP280;61204;49.980;8.358;2023-12-04T05:43:14;100465.19;;;-3.33
72278;BMP280;61204;49.980;8.358;2023-12-04T05:45:39;100454.94;;;-3.35
72278;BMP280;61204;49.980;8.358;2023-12-04T05:48:05;100454.94;;;-3.35
72278;BMP280;61204;49.980;8.358;2023-12-04T05:50:33;100441.06;;;-3.33
72278;BMP280;61204;49.980;8.358;2023-12-04T05:52:58;100434.22;;;-3.34
72278;BMP280;61204;49.980;8.358;2023-12-04T05:55:24;100435.69;;;-3.33
72278;BMP280;61204;49.980;8.358;2023-12-04T05:57:50;100427.13;;;-3.38
72278;BMP280;61204;49.980;8.358;2023-12-04T06:00:18;100435.44;;;-3.36
72278;BMP280;61204;49.980;8.358;2023-12-04T06:02:44;100444.50;;;-3.33
72278;BMP280;61204;49.980;8.358;2023-12-04T06:05:10;100452.78;;;-3.31
72278;BMP280;61204;49.980;8.358;2023-12-04T06:07:37;100454.78;;;-3.26
72278;BMP280;61204;49.980;8.358;2023-12-04T06:10:04;100455.25;;;-3.27
72278;BMP280;61204;49.980;8.358;2023-12-04T06:12:30;100446.28;;;-3.19
72278;BMP280;61204;49.980;8.358;2023-12-04T06:14:56;100447.78;;;-3.12
72278;BMP280;61204;49.980;8.358;2023-12-04T06:17:23;100444.66;;;-3.10
72278;BMP280;61204;49.980;8.358;2023-12-04T06:19:49;100453.38;;;-3.16
72278;BMP280;61204;49.980;8.358;2023-12-04T06:22:14;100437.28;;;-3.16
72278;BMP280;61204;49.980;8.358;2023-12-04T06:24:42;100437.13;;;-3.06
72278;BMP280;61204;49.980;8.358;2023-12-04T06:27:09;100422.94;;;-3.13
72278;BMP280;61204;49.980;8.358;2023-12-04T06:29:41;100424.72;;;-2.98
72278;BMP280;61204;49.980;8.358;2023-12-04T06:32:10;100421.75;;;-3.06
72278;BMP280;61204;49.980;8.358;2023-12-04T06:34:37;100418.56;;;-3.04
72278;BMP280;61204;49.980;8.358;2023-12-04T06:37:09;100416.69;;;-2.93
72278;BMP280;61204;49.980;8.358;2023-12-04T06:39:37;100411.53;;;-2.96
72278;BMP280;61204;49.980;8.358;2023-12-04T06:42:05;100411.13;;;-2.83
72278;BMP280;61204;49.980;8.358;2023-12-04T06:44:33;100406.72;;;-2.86
72278;BMP280;61204;49.980;8.358;2023-12-04T06:47:03;100400.16;;;-2.85
72278;BMP280;61204;49.980;8.358;2023-12-04T06:49:33;100393.09;;;-2.83
72278;BMP280;61204;49.980;8.358;2023-12-04T06:51:59;100381.41;;;-2.74
72278;BMP280;61204;49.980;8.358;2023-12-04T06:54:26;100378.94;;;-2.78
72278;BMP280;61204;49.980;8.358;2023-12-04T06:56:52;100376.81;;;-2.62
72278;BMP280;61204;49.980;8.358;2023-12-04T06:59:18;100379.25;;;-2.59
72278;BMP280;61204;49.980;8.358;2023-12-04T07:01:44;100372.66;;;-2.63
72278;BMP280;61204;49.980;8.358;2023-12-04T07:04:10;100356.03;;;-2.68
72278;BMP280;61204;49.980;8.358;2023-12-04T07:06:37;100362.19;;;-2.61
72278;BMP280;61204;49.980;8.358;2023-12-04T07:09:04;100360.50;;;-2.53
72278;BMP280;61204;49.980;8.358;2023-12-04T07:11:30;100363.41;;;-2.51
72278;BMP280;61204;49.980;8.358;2023-12-04T07:13:58;100367.09;;;-2.37
72278;BMP280;61204;49.980;8.358;2023-12-04T07:16:24;100367.56;;;-2.45
72278;BMP280;61204;49.980;8.358;2023-12-04T07:18:50;100362.47;;;-2.31
72278;BMP280;61204;49.980;8.358;2023-12-04T07:21:15;100363.22;;;-2.25
72278;BMP280;61204;49.980;8.358;2023-12-04T07:23:41;100347.13;;;-2.20
72278;BMP280;61204;49.980;8.358;2023-12-04T07:26:07;100357.88;;;-2.31
72278;BMP280;61204;49.980;8.358;2023-12-04T07:28:33;100355.63;;;-2.32
72278;BMP280;61204;49.980;8.358;2023-12-04T07:31:01;100337.59;;;-2.21
72278;BMP280;61204;49.980;8.358;2023-12-04T07:33:27;100341.75;;;-2.31
72278;BMP280;61204;49.980;8.358;2023-12-04T07:35:54;100344.44;;;-2.25
72278;BMP280;61204;49.980;8.358;2023-12-04T07:38:20;100340.03;;;-2.23
72278;BMP280;61204;49.980;8.358;2023-12-04T07:40:45;100350.28;;;-2.10
72278;BMP280;61204;49.980;8.358;2023-12-04T07:43:14;100351.28;;;-2.07
72278;BMP280;61204;49.980;8.358;2023-12-04T07:45:39;100349.28;;;-2.01
72278;BMP280;61204;49.980;8.358;2023-12-04T07:48:06;100349.53;;;-2.05
72278;BMP280;61204;49.980;8.358;2023-12-04T07:50:32;100345.16;;;-2.02
72278;BMP280;61204;49.980;8.358;2023-12-04T07:52:58;100350.78;;;-2.11
72278;BMP280;61204;49.980;8.358;2023-12-04T07:55:26;100344.94;;;-2.04
72278;BMP280;61204;49.980;8.358;2023-12-04T07:57:51;100346.38;;;-1.98
72278;BMP280;61204;49.980;8.358;2023-12-04T08:00:17;100344.91;;;-1.99
72278;BMP280;61204;49.980;8.358;2023-12-04T08:02:44;100341.00;;;-1.98
72278;BMP280;61204;49.980;8.358;2023-12-04T08:05:11;100348.09;;;-1.89
72278;BMP280;61204;49.980;8.358;2023-12-04T08:07:38;100345.38;;;-1.95
72278;BMP280;61204;49.980;8.358;2023-12-04T08:10:04;100345.66;;;-1.92
72278;BMP280;61204;49.980;8.358;2023-12-04T08:12:31;100342.72;;;-1.78
72278;BMP280;61204;49.980;8.358;2023-12-04T08:14:57;100341.75;;;-1.86
72278;BMP280;61204;49.980;8.358;2023-12-04T08:17:22;100335.88;;;-1.73
72278;BMP280;61204;49.980;8.358;2023-12-04T08:19:48;100326.81;;;-1.76
72278;BMP280;61204;49.980;8.358;2023-12-04T08:22:13;100324.88;;;-1.70
72278;BMP280;61204;49.980;8.358;2023-12-04T08:24:39;100318.72;;;-1.64
72278;BMP280;61204;49.980;8.358;2023-12-04T08:27:04;100314.59;;;-1.65
72278;BMP280;61204;49.980;8.358;2023-12-04T08:29:30;100311.66;;;-1.67
72278;BMP280;61204;49.980;8.358;2023-12-04T08:31:55;100312.09;;;-1.52
72278;BMP280;61204;49.980;8.358;2023-12-04T08:34:21;100306.25;;;-1.56
72278;BMP280;61204;49.980;8.358;2023-12-04T08:36:49;100299.16;;;-1.54
72278;BMP280;61204;49.980;8.358;2023-12-04T08:39:14;100288.88;;;-1.50
72278;BMP280;61204;49.980;8.358;2023-12-04T08:41:46;100292.03;;;-1.46
72278;BMP280;61204;49.980;8.358;2023-12-04T08:44:14;100295.69;;;-1.43
72278;BMP280;61204;49.980;8.358;2023-12-04T08:46:44;100286.31;;;-1.19
72278;BMP280;61204;49.980;8.358;2023-12-04T08:49:10;100279.19;;;-1.11
72278;BMP280;61204;49.980;8.358;2023-12-04T08:51:35;100284.50;;;-0.94
72278;BMP280;61204;49.980;8.358;2023-12-04T08:54:01;100286.41;;;-0.89
72278;BMP280;61204;49.980;8.358;2023-12-04T08:56:28;100276.63;;;-0.87
72278;BMP280;61204;49.980;8.358;2023-12-04T08:58:54;100278.47;;;-0.76
72278;BMP280;61204;49.980;8.358;2023-12-04T09:01:20;100274.94;;;-0.60
72278;BMP280;61204;49.980;8.358;2023-12-04T09:03:46;100274.72;;;-0.62
72278;BMP280;61204;49.980;8.358;2023-12-04T09:06:14;100273.53;;;-0.66
72278;BMP280;61204;49.980;8.358;2023-12-04T09:08:40;100286.72;;;-0.63
72278;BMP280;61204;49.980;8.358;2023-12-04T09:11:06;100281.59;;;-0.66
72278;BMP280;61204;49.980;8.358;2023-12-04T09:13:32;100289.69;;;-0.66
72278;BMP280;61204;49.980;8.358;2023-12-04T09:16:00;100289.53;;;-0.50
72278;BMP280;61204;49.980;8.358;2023-12-04T09:18:25;100291.56;;;-0.56
72278;BMP280;61204;49.980;8.358;2023-12-04T09:20:51;100285.00;;;-0.60
72278;BMP280;61204;49.980;8.358;2023-12-04T09:23:17;100297.50;;;-0.63
72278;BMP280;61204;49.980;8.358;2023-12-04T09:25:42;100296.16;;;-0.51
72278;BMP280;61204;49.980;8.358;2023-12-04T09:28:08;100297.75;;;-0.66
72278;BMP280;61204;49.980;8.358;2023-12-04T09:30:35;100287.06;;;-0.78
72278;BMP280;61204;49.980;8.358;2023-12-04T09:33:02;100284.88;;;-0.79
72278;BMP280;61204;49.980;8.358;2023-12-04T09:35:28;100289.50;;;-0.80
72278;BMP280;61204;49.980;8.358;2023-12-04T09:37:53;100276.81;;;-0.79
72278;BMP280;61204;49.980;8.358;2023-12-04T09:40:19;100275.38;;;-0.86
72278;BMP280;61204;49.980;8.358;2023-12-04T09:42:45;100279.44;;;-0.74
72278;BMP280;61204;49.980;8.358;2023-12-04T09:45:12;100294.63;;;-0.76
72278;BMP280;61204;49.980;8.358;2023-12-04T09:47:38;100293.44;;;-0.81
72278;BMP280;61204;49.980;8.358;2023-12-04T09:50:05;100299.56;;;-0.80
72278;BMP280;61204;49.980;8.358;2023-12-04T09:52:34;100292.91;;;-0.74
72278;BMP280;61204;49.980;8.358;2023-12-04T09:55:00;100290.47;;;-0.77
72278;BMP280;61204;49.980;8.358;2023-12-04T09:57:26;100280.22;;;-0.79
72278;BMP280;61204;49.980;8.358;2023-12-04T09:59:53;100275.31;;;-0.80
72278;BMP280;61204;49.980;8.358;2023-12-04T10:02:20;100262.38;;;-0.82
72278;BMP280;61204;49.980;8.358;2023-12-04T10:04:46;100261.84;;;-0.75
72278;BMP280;61204;49.980;8.358;2023-12-04T10:07:12;100252.97;;;-0.69
72278;BMP280;61204;49.980;8.358;2023-12-04T10:09:38;100256.50;;;-0.50
72278;BMP280;61204;49.980;8.358;2023-12-04T10:12:05;100257.75;;;-0.51
72278;BMP280;61204;49.980;8.358;2023-12-04T10:14:31;100261.31;;;-0.37
72278;BMP280;61204;49.980;8.358;2023-12-04T10:16:57;100262.56;;;-0.44
72278;BMP280;61204;49.980;8.358;2023-12-04T10:19:27;100253.03;;;-0.45
72278;BMP280;61204;49.980;8.358;2023-12-04T10:21:58;100242.38;;;-0.56
72278;BMP280;61204;49.980;8.358;2023-12-04T10:24:35;100248.38;;;-0.44
72278;BMP280;61204;49.980;8.358;2023-12-04T10:27:07;100259.78;;;-0.33
72278;BMP280;61204;49.980;8.358;2023-12-04T10:29:43;100272.41;;;-0.16
72278;BMP280;61204;49.980;8.358;2023-12-04T10:32:10;100274.03;;;-0.08
72278;BMP280;61204;49.980;8.358;2023-12-04T10:34:36;100262.78;;;-0.12
72278;BMP280;61204;49.980;8.358;2023-12-04T10:37:05;100253.22;;;-0.07
72278;BMP280;61204;49.980;8.358;2023-12-04T10:39:31;100255.44;;;0.13
72278;BMP280;61204;49.980;8.358;2023-12-04T10:42:24;100258.81;;;0.19
72278;BMP280;61204;49.980;8.358;2023-12-04T10:45:05;100250.78;;;0.14
72278;BMP280;61204;49.980;8.358;2023-12-04T10:47:32;100234.84;;;0.16
72278;BMP280;61204;49.980;8.358;2023-12-04T10:50:01;100233.66;;;0.11
72278;BMP280;61204;49.980;8.358;2023-12-04T10:52:28;100237.25;;;0.19
72278;BMP280;61204;49.980;8.358;2023-12-04T10:54:56;100221.06;;;0.19
72278;BMP280;61204;49.980;8.358;2023-12-04T10:57:27;100220.91;;;0.12
72278;BMP280;61204;49.980;8.358;2023-12-04T11:00:03;100225.00;;;0.18
72278;BMP280;61204;49.980;8.358;2023-12-04T11:02:33;100209.31;;;0.17
72278;BMP280;61204;49.980;8.358;2023-12-04T11:05:07;100212.38;;;0.08
72278;BMP280;61204;49.980;8.358;2023-12-04T11:07:40;100208.22;;;0.07
72278;BMP280;61204;49.980;8.358;2023-12-04T11:10:13;100201.34;;;-0.13
72278;BMP280;61204;49.980;8.358;2023-12-04T11:12:44;100196.28;;;-0.22
72278;BMP280;61204;49.980;8.358;2023-12-04T11:15:14;100191.03;;;-0.39
72278;BMP280;61204;49.980;8.358;2023-12-04T11:17:47;100178.22;;;-0.58
72278;BMP280;61204;49.980;8.358;2023-12-04T11:20:21;100175.69;;;-0.75
72278;BMP280;61204;49.980;8.358;2023-12-04T11:22:53;100165.75;;;-0.85
72278;BMP280;61204;49.980;8.358;2023-12-04T11:25:21;100147.22;;;-0.94
72278;BMP280;61204;49.980;8.358;2023-12-04T11:27:51;100147.97;;;-0.94
72278;BMP280;61204;49.980;8.358;2023-12-04T11:30:19;100141.38;;;-0.99
72278;BMP280;61204;49.980;8.358;2023-12-04T11:32:50;100143.25;;;-0.88
72278;BMP280;61204;49.980;8.358;2023-12-04T11:35:17;100133.72;;;-0.89
72278;BMP280;61204;49.980;8.358;2023-12-04T11:37:46;100131.03;;;-0.89
72278;BMP280;61204;49.980;8.358;2023-12-04T11:40:17;100119.88;;;-0.74
72278;BMP280;61204;49.980;8.358;2023-12-04T11:42:44;100118.19;;;-0.77
72278;BMP280;61204;49.980;8.358;2023-12-04T11:45:10;100110.84;;;-0.77
72278;BMP280;61204;49.980;8.358;2023-12-04T11:47:57;100100.63;;;-0.84
72278;BMP280;61204;49.980;8.358;2023-12-04T11:50:26;100099.13;;;-0.79
72278;BMP280;61204;49.980;8.358;2023-12-04T11:52:52;100092.44;;;-0.73
72278;BMP280;61204;49.980;8.358;2023-12-04T11:55:23;100095.13;;;-0.73
72278;BMP280;61204;49.980;8.358;2023-12-04T11:57:54;100089.88;;;-0.84
72278;BMP280;61204;49.980;8.358;2023-12-04T12:00:22;100070.91;;;-0.97
72278;BMP280;61204;49.980;8.358;2023-12-04T12:05:19;100057.47;;;-0.97
72278;BMP280;61204;49.980;8.358;2023-12-04T12:07:46;100056.56;;;-1.05
72278;BMP280;61204;49.980;8.358;2023-12-04T12:10:13;100051.56;;;-0.95
72278;BMP280;61204;49.980;8.358;2023-12-04T12:12:45;100050.41;;;-1.00
72278;BMP280;61204;49.980;8.358;2023-12-04T12:15:12;100048.78;;;-1.09
72278;BMP280;61204;49.980;8.358;2023-12-04T12:17:39;100050.00;;;-1.10
72278;BMP280;61204;49.980;8.358;2023-12-04T12:20:10;100048.81;;;-1.14
72278;BMP280;61204;49.980;8.358;2023-12-04T12:22:40;100041.94;;;-1.10
72278;BMP280;61204;49.980;8.358;2023-12-04T12:25:09;100037.72;;;-1.05
72278;BMP280;61204;49.980;8.358;2023-12-04T12:27:37;100037.72;;;-1.05
72278;BMP280;61204;49.980;8.358;2023-12-04T12:30:04;100029.16;;;-1.04
72278;BMP280;61204;49.980;8.358;2023-12-04T12:32:33;100018.66;;;-1.07
72278;BMP280;61204;49.980;8.358;2023-12-04T12:34:59;100008.34;;;-1.03
72278;BMP280;61204;49.980;8.358;2023-12-04T12:37:25;100002.97;;;-1.03
72278;BMP280;61204;49.980;8.358;2023-12-04T12:39:52;99990.03;;;-1.05
72278;BMP280;61204;49.980;8.358;2023-12-04T12:42:29;99979.25;;;-1.05
72278;BMP280;61204;49.980;8.358;2023-12-04T12:44:59;99972.31;;;-0.94
72278;BMP280;61204;49.980;8.358;2023-12-04T12:47:27;99968.63;;;-0.73
72278;BMP280;61204;49.980;8.358;2023-12-04T12:49:54;99951.44;;;-0.88
72278;BMP280;61204;49.980;8.358;2023-12-04T12:52:20;99949.31;;;-0.95
72278;BMP280;61204;49.980;8.358;2023-12-04T12:54:46;99939.78;;;-0.97
72278;BMP280;61204;49.980;8.358;2023-12-04T12:57:12;99941.03;;;-0.98
72278;BMP280;61204;49.980;8.358;2023-12-04T12:59:38;99931.63;;;-1.10
72278;BMP280;61204;49.980;8.358;2023-12-04T13:02:05;99937.66;;;-1.04
72278;BMP280;61204;49.980;8.358;2023-12-04T13:04:38;99930.72;;;-1.18
72278;BMP280;61204;49.980;8.358;2023-12-04T13:07:09;99925.75;;;-1.08
72278;BMP280;61204;49.980;8.358;2023-12-04T13:09:35;99922.25;;;-1.03
72278;BMP280;61204;49.980;8.358;2023-12-04T13:12:02;99921.97;;;-1.00
72278;BMP280;61204;49.980;8.358;2023-12-04T13:14:29;99917.09;;;-1.01
72278;BMP280;61204;49.980;8.358;2023-12-04T13:16:56;99901.66;;;-1.19
72278;BMP280;61204;49.980;8.358;2023-12-04T13:19:24;99900.25;;;-1.26
72278;BMP280;61204;49.980;8.358;2023-12-04T13:21:50;99904.78;;;-1.15
72278;BMP280;61204;49.980;8.358;2023-12-04T13:24:16;99889.16;;;-1.17
72278;BMP280;61204;49.980;8.358;2023-12-04T13:26:43;99887.13;;;-1.11
72278;BMP280;61204;49.980;8.358;2023-12-04T13:29:10;99878.03;;;-1.08
72278;BMP280;61204;49.980;8.358;2023-12-04T13:31:41;99874.25;;;-0.99
72278;BMP280;61204;49.980;8.358;2023-12-04T13:34:07;99879.56;;;-1.12
72278;BMP280;61204;49.980;8.358;2023-12-04T13:36:33;99875.34;;;-1.08
72278;BMP280;61204;49.980;8.358;2023-12-04T13:39:01;99868.50;;;-1.09
72278;BMP280;61204;49.980;8.358;2023-12-04T13:41:28;99873.75;;;-1.16
72278;BMP280;61204;49.980;8.358;2023-12-04T13:44:12;99867.13;;;-1.15
72278;BMP280;61204;49.980;8.358;2023-12-04T13:46:39;99865.69;;;-1.16
72278;BMP280;61204;49.980;8.358;2023-12-04T13:49:05;99859.72;;;-1.09
72278;BMP280;61204;49.980;8.358;2023-12-04T13:51:30;99859.19;;;-1.08
72278;BMP280;61204;49.980;8.358;2023-12-04T13:53:56;99845.03;;;-1.08
72278;BMP280;61204;49.980;8.358;2023-12-04T13:56:34;99840.16;;;-1.10
72278;BMP280;61204;49.980;8.358;2023-12-04T13:59:32;99839.56;;;-1.22
72278;BMP280;61204;49.980;8.358;2023-12-04T14:01:59;99834.47;;;-1.06